createdAt,value
2022-10-21T00:02:06.983Z,0.00
2022-10-21T00:06:55.755Z,0.00
2022-10-21T00:11:55.698Z,0.00
2022-10-21T00:16:55.691Z,0.00
2022-10-21T00:21:55.562Z,0.00
2022-10-21T00:26:55.501Z,0.00
2022-10-21T00:31:55.414Z,0.00
2022-10-21T00:36:55.376Z,0.00
2022-10-21T00:41:55.297Z,0.00
2022-10-21T00:46:55.227Z,0.00
2022-10-21T00:51:55.229Z,0.00
2022-10-21T00:56:55.088Z,0.00
2022-10-21T01:01:55.055Z,0.00
2022-10-21T01:06:54.974Z,0.00
2022-10-21T01:11:54.912Z,0.00
2022-10-21T01:16:54.872Z,0.00
2022-10-21T01:21:54.776Z,0.00
2022-10-21T01:26:54.749Z,0.00
2022-10-21T01:31:54.634Z,0.00
2022-10-21T01:36:54.602Z,0.00
2022-10-21T01:41:54.516Z,0.00
2022-10-21T01:46:54.447Z,0.00
2022-10-21T01:51:54.371Z,0.00
2022-10-21T01:56:54.321Z,0.00
2022-10-21T02:01:54.248Z,0.00
2022-10-21T02:06:54.205Z,0.00
2022-10-21T02:11:54.117Z,0.00
2022-10-21T02:16:54.031Z,0.00
2022-10-21T02:21:53.981Z,0.00
2022-10-21T02:26:53.908Z,0.00
2022-10-21T02:31:53.846Z,0.00
2022-10-21T02:36:53.759Z,0.00
2022-10-21T02:41:53.702Z,0.00
2022-10-21T02:46:53.662Z,0.00
2022-10-21T02:51:53.565Z,0.00
2022-10-21T02:56:53.532Z,0.00
2022-10-21T03:01:53.751Z,0.00
2022-10-21T03:06:53.414Z,0.00
2022-10-21T03:11:53.305Z,0.00
2022-10-21T03:16:53.251Z,0.00
2022-10-21T03:21:53.209Z,0.00
2022-10-21T03:26:53.106Z,0.00
2022-10-21T03:32:06.908Z,0.00
2022-10-21T03:36:52.960Z,0.00
2022-10-21T03:42:02.069Z,0.00
2022-10-21T03:46:52.847Z,0.00
2022-10-21T03:51:52.781Z,0.00
2022-10-21T03:56:52.726Z,0.00
2022-10-21T04:01:52.763Z,0.00
2022-10-21T04:06:52.586Z,0.00
2022-10-21T04:11:52.557Z,0.00
2022-10-21T04:17:02.158Z,0.00
2022-10-21T04:21:53.413Z,0.00
2022-10-21T04:26:52.341Z,0.00
2022-10-21T04:31:52.281Z,0.00
2022-10-21T04:36:52.201Z,0.00
2022-10-21T04:41:52.116Z,0.00
2022-10-21T04:46:52.050Z,0.00
2022-10-21T04:51:51.983Z,0.00
2022-10-21T04:56:51.928Z,0.00
2022-10-21T05:01:51.955Z,0.00
2022-10-21T05:06:51.832Z,4.00
2022-10-21T05:11:51.748Z,4.00
2022-10-21T05:16:51.773Z,12.00
2022-10-21T05:21:51.624Z,32.00
2022-10-21T05:26:51.547Z,72.00
2022-10-21T05:31:51.464Z,140.00
2022-10-21T05:36:51.437Z,220.00
2022-10-21T05:41:51.383Z,348.00
2022-10-21T05:46:51.294Z,528.00
2022-10-21T05:51:51.209Z,812.00
2022-10-21T05:56:51.150Z,1124.00
2022-10-21T06:01:51.076Z,1432.00
2022-10-21T06:06:51.102Z,1696.00
2022-10-21T06:11:50.965Z,2096.00
2022-10-21T06:16:50.920Z,2828.00
2022-10-21T06:21:50.863Z,3384.00
2022-10-21T06:26:50.770Z,4188.00
2022-10-21T06:31:50.724Z,6104.00
2022-10-21T06:36:50.632Z,7796.00
2022-10-21T06:41:50.565Z,13132.00
2022-10-21T06:46:50.508Z,16192.00
2022-10-21T06:51:50.405Z,11296.00
2022-10-21T06:56:50.366Z,8232.00
2022-10-21T07:02:05.595Z,11888.00
2022-10-21T07:06:51.236Z,16224.00
2022-10-21T07:11:50.161Z,38272.00
2022-10-21T07:16:50.137Z,33152.00
2022-10-21T07:21:50.032Z,36288.00
2022-10-21T07:26:50.006Z,19456.00
2022-10-21T07:31:49.899Z,14960.00
2022-10-21T07:36:49.838Z,12400.00
2022-10-21T07:41:50.056Z,16928.00
2022-10-21T07:46:49.785Z,8264.00
2022-10-21T07:51:49.787Z,7760.00
2022-10-21T07:56:49.794Z,6856.00
2022-10-21T08:01:51.074Z,6080.00
2022-10-21T08:06:49.998Z,6232.00
2022-10-21T08:11:50.303Z,8192.00
2022-10-21T08:16:51.237Z,8332.00
2022-10-21T08:21:49.211Z,7752.00
2022-10-21T08:26:49.162Z,7448.00
2022-10-21T08:31:49.112Z,7664.00
2022-10-21T08:36:49.089Z,11484.00
2022-10-21T08:41:48.954Z,9592.00
2022-10-21T08:46:48.952Z,10116.00
2022-10-21T08:51:48.830Z,13216.00
2022-10-21T08:56:48.802Z,13212.00
2022-10-21T09:01:48.699Z,10748.00
2022-10-21T09:06:48.642Z,11376.00
2022-10-21T09:11:48.836Z,10556.00
2022-10-21T09:16:48.551Z,9828.00
2022-10-21T09:21:48.435Z,8808.00
2022-10-21T09:26:48.367Z,7364.00
2022-10-21T09:31:54.395Z,8488.00
2022-10-21T09:36:49.256Z,8836.00
2022-10-21T09:41:48.198Z,7512.00
2022-10-21T09:46:48.419Z,7588.00
2022-10-21T09:51:48.044Z,8256.00
2022-10-21T09:56:48.034Z,9920.00
2022-10-21T10:01:48.764Z,9220.00
2022-10-21T10:06:47.868Z,8656.00
2022-10-21T10:11:47.849Z,8780.00
2022-10-21T10:16:47.734Z,9232.00
2022-10-21T10:21:47.682Z,9684.00
2022-10-21T10:26:47.594Z,8696.00
2022-10-21T10:31:49.585Z,7256.00
2022-10-21T10:36:47.444Z,6632.00
2022-10-21T10:41:47.418Z,6716.00
2022-10-21T10:51:47.260Z,8516.00
2022-10-21T10:56:47.490Z,8392.00
2022-10-21T11:01:47.115Z,9576.00
2022-10-21T11:06:47.071Z,10468.00
2022-10-21T11:11:47.009Z,10264.00
2022-10-21T11:16:59.592Z,9620.00
2022-10-21T11:21:47.835Z,7396.00
2022-10-21T11:26:46.831Z,6268.00
2022-10-21T11:32:09.662Z,6628.00
2022-10-21T11:36:47.736Z,7312.00
2022-10-21T11:41:47.566Z,6596.00
2022-10-21T11:46:48.414Z,5348.00
2022-10-21T11:51:46.530Z,5272.00
2022-10-21T11:56:46.525Z,5220.00
2022-10-21T12:01:46.360Z,5220.00
2022-10-21T12:06:47.150Z,6180.00
2022-10-21T12:11:46.308Z,5904.00
2022-10-21T12:16:46.172Z,4880.00
2022-10-21T12:21:46.045Z,3032.00
2022-10-21T12:26:46.019Z,2988.00
2022-10-21T12:31:45.941Z,4620.00
2022-10-21T12:36:46.551Z,4444.00
2022-10-21T12:41:45.800Z,4348.00
2022-10-21T12:46:46.484Z,3664.00
2022-10-21T12:51:45.681Z,3580.00
2022-10-21T12:56:46.391Z,3104.00
2022-10-21T13:01:45.554Z,2012.00
2022-10-21T13:06:45.793Z,2040.00
2022-10-21T13:11:45.401Z,2128.00
2022-10-21T13:16:45.346Z,1832.00
2022-10-21T13:21:45.301Z,1804.00
2022-10-21T13:26:45.349Z,1968.00
2022-10-21T13:31:45.154Z,1936.00
2022-10-21T13:36:45.264Z,1936.00
2022-10-21T13:41:45.053Z,1692.00
2022-10-21T13:46:45.202Z,1600.00
2022-10-21T13:51:44.886Z,1536.00
2022-10-21T13:56:44.813Z,1376.00
2022-10-21T14:01:44.927Z,1172.00
2022-10-21T14:06:44.791Z,1372.00
2022-10-21T14:11:44.643Z,1116.00
2022-10-21T14:16:44.574Z,1680.00
2022-10-21T14:21:44.560Z,1720.00
2022-10-21T14:26:44.561Z,1312.00
2022-10-21T14:31:46.403Z,1264.00
2022-10-21T14:36:44.278Z,1192.00
2022-10-21T14:41:44.228Z,1124.00
2022-10-21T14:46:44.228Z,1480.00
2022-10-21T14:51:44.140Z,1940.00
2022-10-21T14:56:43.996Z,1308.00
2022-10-21T15:01:43.948Z,864.00
2022-10-21T15:06:44.203Z,444.00
2022-10-21T15:11:43.832Z,392.00
2022-10-21T15:16:43.875Z,316.00
2022-10-21T15:21:43.783Z,280.00
2022-10-21T15:26:43.748Z,376.00
2022-10-21T15:31:43.571Z,496.00
2022-10-21T15:36:43.479Z,492.00
2022-10-21T15:41:43.494Z,304.00
2022-10-21T15:46:43.435Z,168.00
2022-10-21T15:51:43.361Z,60.00
2022-10-21T15:56:43.379Z,36.00
2022-10-21T16:01:43.206Z,20.00
2022-10-21T16:06:43.167Z,12.00
2022-10-21T16:11:54.822Z,4.00
2022-10-21T16:16:43.958Z,4.00
2022-10-21T16:21:42.939Z,0.00
2022-10-21T16:26:43.033Z,0.00
2022-10-21T16:31:42.791Z,0.00
2022-10-21T16:36:42.779Z,0.00
2022-10-21T16:41:42.669Z,0.00
2022-10-21T16:46:42.657Z,0.00
2022-10-21T16:51:42.559Z,0.00
2022-10-21T16:56:42.560Z,0.00
2022-10-21T17:01:42.436Z,0.00
2022-10-21T17:06:42.360Z,0.00
2022-10-21T17:11:42.313Z,0.00
2022-10-21T17:16:42.315Z,0.00
2022-10-21T17:21:42.182Z,0.00
2022-10-21T17:26:42.079Z,0.00
2022-10-21T17:31:42.075Z,0.00
2022-10-21T17:36:41.994Z,0.00
2022-10-21T17:41:42.346Z,0.00
2022-10-21T17:46:41.935Z,0.00
2022-10-21T17:51:41.789Z,0.00
2022-10-21T17:56:41.773Z,0.00
2022-10-21T18:01:41.756Z,0.00
2022-10-21T18:06:41.510Z,0.00
2022-10-21T18:11:41.861Z,0.00
2022-10-21T18:16:41.528Z,0.00
2022-10-21T18:21:41.369Z,0.00
2022-10-21T18:26:41.301Z,0.00
2022-10-21T18:31:41.309Z,0.00
2022-10-21T18:36:41.153Z,0.00
2022-10-21T18:41:41.062Z,0.00
2022-10-21T18:46:41.030Z,0.00
2022-10-21T18:51:40.991Z,0.00
2022-10-21T18:56:40.918Z,0.00
2022-10-21T19:01:40.866Z,0.00
2022-10-21T19:06:40.795Z,0.00
2022-10-21T19:11:40.674Z,0.00
2022-10-21T19:16:42.824Z,0.00
2022-10-21T19:21:40.612Z,0.00
2022-10-21T19:26:40.487Z,0.00
2022-10-21T19:31:40.503Z,0.00
2022-10-21T19:36:40.413Z,0.00
2022-10-21T19:41:40.414Z,0.00
2022-10-21T19:46:40.347Z,0.00
2022-10-21T19:51:40.241Z,0.00
2022-10-21T19:56:40.084Z,0.00
2022-10-21T20:01:41.923Z,0.00
2022-10-21T20:06:40.043Z,0.00
2022-10-21T20:11:39.947Z,0.00
2022-10-21T20:16:40.746Z,0.00
2022-10-21T20:21:41.096Z,0.00
2022-10-21T20:31:40.550Z,0.00
2022-10-21T20:36:40.412Z,0.00
2022-10-21T20:41:39.595Z,0.00
2022-10-21T20:46:39.711Z,0.00
2022-10-21T20:51:39.333Z,0.00
2022-10-21T20:56:39.292Z,0.00
2022-10-21T21:01:42.432Z,0.00
2022-10-21T21:06:39.255Z,0.00
2022-10-21T21:11:39.143Z,0.00
2022-10-21T21:16:39.115Z,0.00
2022-10-21T21:21:39.374Z,0.00
2022-10-21T21:26:39.001Z,0.00
2022-10-21T21:31:38.942Z,0.00
2022-10-21T21:36:38.775Z,0.00
2022-10-21T21:41:38.787Z,0.00
2022-10-21T21:46:38.649Z,0.00
2022-10-21T21:51:38.588Z,0.00
2022-10-21T21:56:38.489Z,0.00
2022-10-21T22:01:38.609Z,0.00
2022-10-21T22:06:38.450Z,0.00
2022-10-21T22:11:38.369Z,0.00
2022-10-21T22:16:56.402Z,0.00
2022-10-21T22:21:38.128Z,0.00
2022-10-21T22:26:38.076Z,0.00
2022-10-21T22:31:37.986Z,0.00
2022-10-21T22:36:37.950Z,0.00
2022-10-21T22:41:37.898Z,0.00
2022-10-21T22:46:37.819Z,0.00
2022-10-21T22:51:37.869Z,0.00
2022-10-21T22:56:37.750Z,0.00
2022-10-21T23:01:37.772Z,0.00
2022-10-21T23:06:37.649Z,0.00
2022-10-21T23:11:41.689Z,0.00
2022-10-21T23:16:37.617Z,0.00
2022-10-21T23:21:37.368Z,0.00
2022-10-21T23:26:38.231Z,0.00
2022-10-21T23:31:37.276Z,0.00
2022-10-21T23:36:37.236Z,0.00
2022-10-21T23:41:37.168Z,0.00
2022-10-21T23:46:37.165Z,0.00
2022-10-21T23:51:37.018Z,0.00
2022-10-21T23:56:36.949Z,0.00
